createdAt,value
2023-03-29T00:00:14.202Z,62.51
2023-03-29T00:05:18.192Z,62.15
2023-03-29T00:10:24.138Z,62.15
2023-03-29T00:15:26.209Z,62.38
2023-03-29T00:20:28.983Z,62.33
2023-03-29T00:25:30.709Z,62.39
2023-03-29T00:30:32.326Z,62.74
2023-03-29T00:35:34.174Z,62.87
2023-03-29T00:40:42.454Z,63.18
2023-03-29T00:45:44.093Z,62.87
2023-03-29T00:50:52.820Z,63.26
2023-03-29T00:56:11.237Z,63.37
2023-03-29T01:01:17.632Z,63.23
2023-03-29T01:06:24.745Z,63.01
2023-03-29T01:11:36.048Z,63.60
2023-03-29T01:16:38.587Z,63.34
2023-03-29T01:21:47.933Z,63.20
2023-03-29T01:26:57.545Z,63.28
2023-03-29T01:32:11.956Z,63.36
2023-03-29T01:37:24.751Z,63.54
2023-03-29T01:42:38.340Z,63.71
2023-03-29T01:47:50.420Z,63.56
2023-03-29T01:53:14.548Z,63.41
2023-03-29T01:58:19.108Z,63.28
2023-03-29T02:03:26.631Z,63.22
2023-03-29T02:08:29.902Z,63.28
2023-03-29T02:13:32.297Z,63.26
2023-03-29T02:18:34.975Z,63.38
2023-03-29T02:23:46.745Z,63.77
2023-03-29T02:28:48.572Z,63.49
2023-03-29T02:33:53.127Z,63.85
2023-03-29T02:38:56.032Z,63.52
2023-03-29T02:43:59.612Z,64.03
2023-03-29T02:49:01.362Z,63.82
2023-03-29T02:54:15.551Z,64.17
2023-03-29T02:59:22.720Z,63.77
2023-03-29T03:04:25.535Z,63.70
2023-03-29T03:09:27.476Z,63.60
2023-03-29T03:14:29.515Z,63.48
2023-03-29T03:19:31.608Z,63.42
2023-03-29T03:24:33.598Z,63.48
2023-03-29T03:29:36.512Z,63.60
2023-03-29T03:34:38.698Z,63.62
2023-03-29T03:39:40.371Z,63.65
2023-03-29T03:44:42.608Z,63.65
2023-03-29T03:49:44.301Z,63.67
2023-03-29T03:54:46.768Z,63.59
2023-03-29T03:59:49.017Z,63.55
2023-03-29T04:04:50.793Z,63.80
2023-03-29T04:09:53.135Z,63.66
2023-03-29T04:14:54.823Z,63.80
2023-03-29T04:19:57.544Z,64.00
2023-03-29T04:24:59.198Z,63.64
2023-03-29T04:30:00.927Z,63.84
2023-03-29T04:35:04.834Z,63.71
2023-03-29T04:40:14.454Z,63.71
2023-03-29T04:45:18.241Z,63.82
2023-03-29T04:50:20.075Z,63.90
2023-03-29T04:55:21.698Z,63.91
2023-03-29T05:00:27.376Z,63.75
2023-03-29T05:05:29.026Z,63.75
2023-03-29T05:10:30.658Z,63.64
2023-03-29T05:15:32.806Z,63.80
2023-03-29T05:20:34.478Z,63.90
2023-03-29T05:25:36.172Z,63.86
2023-03-29T05:30:38.118Z,63.83
2023-03-29T05:35:39.899Z,63.73
2023-03-29T05:40:41.630Z,63.70
2023-03-29T05:45:43.434Z,63.59
2023-03-29T05:50:49.615Z,63.73
2023-03-29T05:55:51.681Z,63.91
2023-03-29T06:00:53.485Z,63.36
2023-03-29T06:05:58.165Z,63.35
2023-03-29T06:11:04.485Z,63.34
2023-03-29T06:16:07.375Z,62.70
2023-03-29T06:21:09.458Z,62.49
2023-03-29T06:26:11.110Z,62.44
2023-03-29T06:31:13.269Z,62.35
2023-03-29T06:36:16.898Z,62.54
2023-03-29T06:41:18.562Z,63.12
2023-03-29T06:46:20.275Z,63.16
2023-03-29T06:51:23.377Z,62.74
2023-03-29T06:56:25.952Z,62.20
2023-03-29T07:01:28.562Z,62.25
2023-03-29T07:06:31.141Z,62.62
2023-03-29T07:11:36.478Z,63.10
2023-03-29T07:16:38.437Z,62.93
2023-03-29T07:21:40.067Z,62.66
2023-03-29T07:26:52.264Z,61.85
2023-03-29T07:32:02.369Z,61.96
2023-03-29T07:37:03.983Z,62.36
2023-03-29T07:42:06.697Z,62.09
2023-03-29T07:47:08.408Z,61.81
2023-03-29T07:52:10.110Z,60.81
2023-03-29T07:57:12.237Z,60.15
2023-03-29T08:02:16.649Z,60.10
2023-03-29T08:07:20.043Z,59.66
2023-03-29T08:12:24.988Z,59.73
2023-03-29T08:17:26.799Z,59.63
2023-03-29T08:22:28.550Z,59.49
2023-03-29T08:27:33.426Z,57.91
2023-03-29T08:32:36.904Z,57.42
2023-03-29T08:37:38.750Z,57.42
2023-03-29T08:42:56.802Z,56.38
2023-03-29T08:48:04.245Z,56.28
2023-03-29T08:53:15.512Z,56.28
2023-03-29T08:58:21.221Z,56.05
2023-03-29T09:03:31.643Z,56.10
2023-03-29T09:08:40.251Z,55.52
2023-03-29T09:13:50.890Z,54.83
2023-03-29T09:18:59.264Z,54.34
2023-03-29T09:24:27.136Z,53.85
2023-03-29T09:29:41.190Z,53.78
2023-03-29T09:34:54.439Z,52.95
2023-03-29T09:39:57.629Z,52.85
2023-03-29T09:45:08.569Z,52.37
2023-03-29T09:50:30.263Z,52.77
2023-03-29T09:55:36.512Z,52.93
2023-03-29T10:07:00.731Z,52.64
2023-03-29T10:25:14.366Z,51.94
2023-03-29T10:30:23.123Z,52.03
2023-03-29T10:35:44.385Z,51.96
2023-03-29T10:40:48.150Z,51.97
2023-03-29T10:45:52.200Z,50.69
2023-03-29T10:50:57.385Z,50.63
2023-03-29T10:56:24.507Z,49.85
2023-03-29T11:08:07.297Z,48.42
2023-03-29T11:13:21.071Z,47.26
2023-03-29T11:18:28.859Z,46.86
2023-03-29T11:23:39.851Z,45.89
2023-03-29T11:28:57.735Z,46.39
2023-03-29T11:34:08.133Z,46.20
2023-03-29T11:39:55.927Z,45.81
2023-03-29T11:45:00.131Z,45.97
2023-03-29T11:50:15.563Z,44.28
2023-03-29T11:55:23.649Z,44.48
2023-03-29T12:00:31.017Z,44.34
2023-03-29T12:05:39.763Z,44.41
2023-03-29T12:10:48.073Z,44.27
2023-03-29T12:16:16.652Z,43.93
2023-03-29T12:21:23.306Z,44.21
2023-03-29T12:26:52.798Z,43.15
2023-03-29T12:38:28.721Z,43.84
2023-03-29T12:49:58.957Z,42.55
2023-03-29T12:55:04.520Z,43.32
2023-03-29T13:00:42.694Z,42.64
2023-03-29T13:05:44.560Z,43.48
2023-03-29T13:10:53.463Z,43.48
2023-03-29T13:15:56.299Z,43.71
2023-03-29T13:21:09.748Z,43.71
2023-03-29T15:20:51.486Z,42.31
2023-03-29T15:32:35.884Z,42.17
2023-03-29T15:37:37.888Z,42.98
2023-03-29T15:42:39.690Z,42.87
2023-03-29T15:47:41.360Z,42.94
2023-03-29T15:52:43.204Z,42.89
2023-03-29T15:57:48.596Z,42.66
2023-03-29T16:02:51.462Z,42.53
2023-03-29T16:07:53.086Z,42.34
2023-03-29T16:12:54.699Z,42.73
2023-03-29T16:17:56.616Z,42.75
2023-03-29T16:22:58.353Z,42.99
2023-03-29T16:27:59.998Z,43.39
2023-03-29T16:33:06.306Z,43.71
2023-03-29T16:50:52.479Z,46.22
2023-03-29T16:55:54.654Z,47.20
2023-03-29T17:00:57.182Z,47.95
2023-03-29T17:05:59.274Z,48.64
2023-03-29T17:11:01.455Z,49.47
2023-03-29T17:16:03.974Z,50.07
2023-03-29T17:21:06.292Z,51.00
2023-03-29T18:48:08.198Z,56.48
2023-03-29T18:54:33.318Z,57.85
2023-03-29T18:59:36.625Z,57.16
2023-03-29T19:04:38.572Z,57.37
2023-03-29T19:09:41.732Z,57.42
2023-03-29T19:14:43.596Z,57.59
2023-03-29T19:19:45.566Z,57.91
2023-03-29T19:24:47.370Z,58.42
2023-03-29T19:29:49.735Z,58.37
2023-03-29T19:34:52.251Z,58.90
2023-03-29T19:39:55.797Z,59.39
2023-03-29T19:44:57.520Z,59.34
2023-03-29T19:50:00.131Z,59.51
2023-03-29T19:55:02.261Z,59.48
2023-03-29T20:00:08.071Z,59.86
2023-03-29T20:05:15.702Z,59.97
2023-03-29T20:10:17.592Z,60.33
2023-03-29T20:15:19.480Z,60.69
2023-03-29T20:20:23.077Z,60.69
2023-03-29T20:25:24.999Z,60.86
2023-03-29T20:30:26.921Z,61.01
2023-03-29T20:35:28.775Z,61.13
2023-03-29T20:40:31.628Z,61.40
2023-03-29T20:45:46.188Z,61.62
2023-03-29T20:50:54.289Z,61.46
2023-03-29T20:55:56.006Z,61.40
2023-03-29T21:00:58.907Z,61.36
2023-03-29T21:06:02.352Z,61.61
2023-03-29T21:11:04.237Z,61.88
2023-03-29T21:16:06.992Z,61.99
2023-03-29T21:21:10.340Z,61.95
2023-03-29T21:26:12.068Z,62.08
2023-03-29T21:31:13.869Z,62.14
2023-03-29T21:36:15.855Z,62.19
2023-03-29T21:41:18.738Z,62.44
2023-03-29T21:46:20.660Z,62.34
2023-03-29T21:51:22.414Z,62.50
2023-03-29T21:56:24.127Z,62.68
2023-03-29T22:01:25.909Z,62.49
2023-03-29T22:06:27.636Z,62.65
2023-03-29T22:11:30.484Z,62.77
2023-03-29T22:16:32.438Z,62.71
2023-03-29T22:21:37.376Z,62.85
2023-03-29T22:26:39.195Z,62.90
2023-03-29T22:31:41.038Z,63.00
2023-03-29T22:36:42.772Z,62.96
2023-03-29T22:41:44.566Z,63.08
2023-03-29T22:46:46.820Z,62.82
2023-03-29T22:51:48.895Z,63.01
2023-03-29T22:56:51.050Z,63.35
2023-03-29T23:01:53.087Z,63.18
2023-03-29T23:06:54.906Z,63.11
2023-03-29T23:11:56.647Z,63.26
2023-03-29T23:16:58.396Z,63.69
2023-03-29T23:22:00.163Z,63.67
2023-03-29T23:27:03.019Z,63.89
2023-03-29T23:32:05.025Z,63.95
2023-03-29T23:37:06.755Z,64.24
2023-03-29T23:42:08.539Z,64.14
2023-03-29T23:47:10.254Z,63.99
2023-03-29T23:52:12.589Z,63.50
2023-03-29T23:57:14.345Z,63.53
